Time;durP1;ratioP1;P1;durP2;ratioP2;P2;SDS_P1;SDS_P2;PMS_P1;PMS_P2;Temp;Humidity;BMP_temperature;BMP_pressure;BME280_temperature;BME280_humidity;BME280_pressure;Samples;Min_cycle;Max_cycle;Signal;HPM_P1;HPM_P2
2022/12/06 00:00:36;;;;;;;8.57;4.05;;;;;;;-9.26;62.67;101306.47;5018441;28;20040;-74
2022/12/06 00:03:00;;;;;;;9.10;4.55;;;;;;;-9.19;62.17;101311.03;5031666;28;20093;-75
2022/12/06 00:05:25;;;;;;;6.32;3.63;;;;;;;-9.08;62.27;101303.63;5022125;28;20392;-75
2022/12/06 00:07:50;;;;;;;11.40;3.80;;;;;;;-9.05;62.57;101303.75;5039707;28;20542;-73
2022/12/06 00:10:15;;;;;;;9.05;3.72;;;;;;;-9.06;61.41;101297.72;5039727;28;20052;-74
2022/12/06 00:12:40;;;;;;;8.57;4.03;;;;;;;-9.02;61.36;101298.66;5035828;28;20040;-72
2022/12/06 00:15:05;;;;;;;7.10;3.88;;;;;;;-8.99;62.08;101293.59;5000023;28;20043;-71
2022/12/06 00:17:32;;;;;;;7.43;3.85;;;;;;;-9.00;61.38;101289.25;5029528;28;20510;-71
2022/12/06 00:19:57;;;;;;;8.27;4.20;;;;;;;-9.07;62.22;101284.72;5039570;28;20041;-70
2022/12/06 00:22:22;;;;;;;9.45;4.40;;;;;;;-9.12;61.69;101278.53;5039304;28;20052;-70
2022/12/06 00:24:46;;;;;;;7.90;3.83;;;;;;;-9.10;61.97;101270.00;5020612;28;20055;-70
2022/12/06 00:27:11;;;;;;;5.53;3.40;;;;;;;-9.04;61.90;101270.22;5038716;28;20120;-71
2022/12/06 00:29:36;;;;;;;8.88;4.57;;;;;;;-9.18;62.13;101277.50;5021260;28;20048;-73
2022/12/06 00:32:01;;;;;;;8.65;4.68;;;;;;;-9.31;61.56;101280.50;5056848;28;20188;-71
2022/12/06 00:34:25;;;;;;;7.43;3.88;;;;;;;-9.38;61.92;101272.50;5038525;28;20057;-74
2022/12/06 00:36:50;;;;;;;11.65;3.83;;;;;;;-9.34;62.93;101282.97;5051995;28;20052;-74
2022/12/06 00:39:16;;;;;;;9.55;4.07;;;;;;;-9.30;62.83;101292.59;5034340;28;20066;-74
2022/12/06 00:41:42;;;;;;;9.80;4.82;;;;;;;-9.35;62.29;101278.63;5049172;28;20416;-70
2022/12/06 00:44:07;;;;;;;7.30;3.70;;;;;;;-9.28;62.84;101282.31;5056234;28;20130;-71
2022/12/06 00:46:33;;;;;;;7.50;3.95;;;;;;;-9.33;62.79;101273.50;5028238;28;20452;-73
2022/12/06 00:48:59;;;;;;;6.60;4.05;;;;;;;-9.35;62.23;101262.25;5055368;28;20491;-71
2022/12/06 00:51:25;;;;;;;8.75;5.05;;;;;;;-9.44;63.17;101267.97;5038465;28;20040;-74
2022/12/06 00:53:51;;;;;;;7.50;4.18;;;;;;;-9.40;62.20;101264.69;5051886;28;20060;-74
2022/12/06 00:56:16;;;;;;;12.15;6.20;;;;;;;-9.54;62.37;101258.16;5050935;28;20413;-72
2022/12/06 00:58:41;;;;;;;9.15;4.55;;;;;;;-9.50;62.68;101249.72;5054388;28;20059;-71
2022/12/06 01:01:12;;;;;;;8.32;4.15;;;;;;;-9.39;63.26;101242.34;5039363;28;20048;-70
2022/12/06 01:03:37;;;;;;;7.72;4.65;;;;;;;-9.44;63.09;101249.91;5036130;28;20039;-69
2022/12/06 01:06:07;;;;;;;9.93;4.43;;;;;;;-9.49;62.56;101248.00;5036502;28;20047;-70
2022/12/06 01:08:32;;;;;;;9.10;4.88;;;;;;;-9.40;62.76;101243.16;5057550;28;20043;-69
2022/12/06 01:10:57;;;;;;;4.07;2.17;;;;;;;-9.23;62.99;101236.84;5057947;28;20047;-71
2022/12/06 01:13:21;;;;;;;1.50;1.05;;;;;;;-9.10;62.76;101233.84;5040210;28;20132;-73
2022/12/06 01:15:46;;;;;;;7.78;4.43;;;;;;;-9.47;62.38;101233.41;5008585;28;20040;-72
2022/12/06 01:18:11;;;;;;;9.63;4.18;;;;;;;-9.50;62.62;101230.75;5055255;28;20046;-72
2022/12/06 01:20:36;;;;;;;10.05;5.00;;;;;;;-9.63;63.41;101234.63;5056729;28;20544;-72
2022/12/06 01:23:00;;;;;;;9.90;4.65;;;;;;;-9.59;63.75;101227.00;5035251;28;20055;-71
2022/12/06 01:25:25;;;;;;;3.65;1.80;;;;;;;-9.47;63.67;101230.84;5038996;28;20101;-72
2022/12/06 01:27:49;;;;;;;7.72;4.05;;;;;;;-9.59;62.71;101236.47;5056552;28;20051;-70
2022/12/06 01:30:14;;;;;;;8.05;4.45;;;;;;;-9.65;63.64;101220.78;5050555;28;20530;-74
2022/12/06 01:32:39;;;;;;;6.28;3.85;;;;;;;-9.59;63.24;101218.41;5056399;28;20097;-72
2022/12/06 01:35:04;;;;;;;6.82;4.15;;;;;;;-9.69;64.06;101227.53;5022772;28;20040;-72
2022/12/06 01:37:29;;;;;;;2.85;1.75;;;;;;;-9.60;63.89;101214.09;5038664;28;20462;-73
2022/12/06 01:39:53;;;;;;;10.20;3.92;;;;;;;-9.64;63.08;101226.00;5049517;28;20473;-73
2022/12/06 01:42:18;;;;;;;10.05;4.47;;;;;;;-9.74;63.92;101220.47;5035789;28;20490;-72
2022/12/06 01:44:53;;;;;;;8.13;3.85;;;;;;;-9.60;63.26;101214.09;5051050;28;20044;-70
2022/12/06 01:47:26;;;;;;;4.60;2.45;;;;;;;-9.45;62.42;101218.88;5045039;28;20059;-71
2022/12/06 01:50:13;;;;;;;7.40;3.92;;;;;;;-9.59;62.96;101232.19;5019888;28;20041;-70
2022/12/06 01:52:46;;;;;;;6.93;4.35;;;;;;;-9.67;63.27;101212.97;5011005;28;20123;-69
2022/12/06 01:55:12;;;;;;;9.95;5.07;;;;;;;-9.61;62.97;101213.22;5018851;28;20074;-71
2022/12/06 01:57:38;;;;;;;7.28;3.40;;;;;;;-9.56;62.91;101205.59;5056586;28;20490;-71
2022/12/06 02:00:07;;;;;;;8.98;4.85;;;;;;;-9.62;63.47;101213.16;5038038;28;20047;-72
2022/12/06 02:02:35;;;;;;;10.00;4.78;;;;;;;-9.62;63.19;101202.81;5047411;28;20040;-72
2022/12/06 02:05:01;;;;;;;1.90;1.48;;;;;;;-9.49;63.65;101202.44;5034698;28;20107;-72
2022/12/06 02:07:28;;;;;;;6.30;4.22;;;;;;;-9.57;63.29;101209.00;5018345;28;20032;-71
2022/12/06 02:09:54;;;;;;;4.88;2.00;;;;;;;-9.44;63.63;101205.13;5035768;28;20086;-72
2022/12/06 02:12:18;;;;;;;13.13;6.28;;;;;;;-9.65;63.65;101200.13;5036661;28;20040;-70
2022/12/06 02:14:47;;;;;;;12.98;4.32;;;;;;;-9.35;63.05;101200.28;5037575;28;20055;-71
2022/12/06 02:17:34;;;;;;;2.63;1.95;;;;;;;-9.21;62.78;101187.00;5020314;28;20066;-68
2022/12/06 02:20:13;;;;;;;9.38;4.53;;;;;;;-9.47;62.98;101185.25;5037054;28;20037;-69
2022/12/06 02:22:56;;;;;;;8.00;4.03;;;;;;;-9.56;62.82;101188.41;5005370;28;20132;-71
2022/12/06 02:25:39;;;;;;;8.15;4.50;;;;;;;-9.52;61.94;101181.66;5003105;28;20144;-70
2022/12/06 02:28:18;;;;;;;4.47;2.40;;;;;;;-9.48;62.70;101170.63;5032238;28;20059;-69
2022/12/06 02:30:46;;;;;;;13.82;5.45;;;;;;;-9.58;62.29;101171.13;5025307;28;20071;-68
2022/12/06 02:33:25;;;;;;;9.75;4.40;;;;;;;-9.62;62.82;101177.91;5037705;28;20537;-69
2022/12/06 02:36:14;;;;;;;12.88;5.68;;;;;;;-9.65;63.71;101176.91;5029050;28;20052;-67
2022/12/06 02:38:47;;;;;;;7.45;3.42;;;;;;;-9.48;62.46;101162.00;5017204;28;20035;-69
2022/12/06 02:41:38;;;;;;;9.00;5.35;;;;;;;-9.67;62.91;101160.47;5039063;28;20048;-67
2022/12/06 02:44:07;;;;;;;7.97;4.50;;;;;;;-9.70;63.49;101170.69;5037046;28;20120;-64
2022/12/06 02:46:36;;;;;;;11.65;5.55;;;;;;;-9.76;63.72;101155.03;5018594;28;20048;-64
2022/12/06 02:49:04;;;;;;;14.68;5.68;;;;;;;-9.69;62.66;101154.38;5034996;28;20039;-64
2022/12/06 02:51:31;;;;;;;14.18;6.70;;;;;;;-9.87;63.66;101140.88;5036843;28;20040;-64
2022/12/06 02:53:59;;;;;;;5.28;3.38;;;;;;;-9.70;63.49;101150.94;5036405;28;20044;-63
2022/12/06 02:56:26;;;;;;;4.25;1.50;;;;;;;-9.62;63.07;101153.78;5034768;28;20074;-64
2022/12/06 02:58:50;;;;;;;10.18;5.00;;;;;;;-9.74;62.74;101143.94;5031912;28;20048;-63
2022/12/06 03:01:23;;;;;;;12.15;6.10;;;;;;;-9.71;63.25;101148.31;5039047;28;20048;-63
2022/12/06 03:04:12;;;;;;;9.98;4.03;;;;;;;-9.65;62.97;101151.97;5040093;28;20105;-71
2022/12/06 03:06:59;;;;;;;5.10;2.65;;;;;;;-9.49;62.93;101152.50;5018624;28;20049;-70
2022/12/06 03:09:24;;;;;;;10.75;5.57;;;;;;;-9.78;63.28;101142.06;5028804;28;20097;-71
2022/12/06 03:11:58;;;;;;;9.13;4.88;;;;;;;-9.95;64.18;101151.81;5018690;28;20048;-73
2022/12/06 03:14:25;;;;;;;14.25;5.88;;;;;;;-9.89;64.33;101156.28;5039282;28;20036;-71
2022/12/06 03:17:26;;;;;;;9.73;5.05;;;;;;;-9.82;63.44;101154.81;5041786;28;20131;-70
2022/12/06 03:19:59;;;;;;;12.90;7.20;;;;;;;-9.89;63.82;101153.72;5030579;28;20056;-72
2022/12/06 03:22:34;;;;;;;4.80;2.67;;;;;;;-9.67;64.17;101153.63;5040251;28;20503;-74
2022/12/06 03:25:01;;;;;;;4.22;2.55;;;;;;;-9.63;62.78;101155.50;5039883;28;20047;-72
2022/12/06 03:27:30;;;;;;;5.93;2.58;;;;;;;-9.70;63.94;101155.22;5039412;28;20048;-72
2022/12/06 03:30:00;;;;;;;6.45;4.13;;;;;;;-9.63;63.33;101162.34;5021321;28;20041;-70
2022/12/06 03:32:29;;;;;;;10.73;5.43;;;;;;;-9.69;62.92;101157.84;5010266;28;20044;-70
2022/12/06 03:34:58;;;;;;;9.85;4.47;;;;;;;-9.71;63.93;101161.22;5014435;28;20059;-71
2022/12/06 03:37:26;;;;;;;5.68;3.47;;;;;;;-9.59;62.88;101154.75;5026722;28;20056;-72
2022/12/06 03:40:02;;;;;;;8.07;4.93;;;;;;;-9.80;62.60;101143.72;5034296;28;20079;-73
2022/12/06 03:42:30;;;;;;;9.98;4.47;;;;;;;-9.63;63.85;101133.97;5035820;28;20050;-72
2022/12/06 03:44:55;;;;;;;4.90;2.28;;;;;;;-9.40;62.56;101138.19;5035304;28;20041;-72
2022/12/06 03:47:26;;;;;;;15.30;3.72;;;;;;;-9.72;62.82;101144.00;5034821;28;20048;-64
2022/12/06 03:49:56;;;;;;;11.38;4.47;;;;;;;-10.00;62.57;101129.25;5017616;28;20051;-64
2022/12/06 03:52:23;;;;;;;7.70;3.97;;;;;;;-10.04;63.45;101128.25;5038571;28;20127;-66
2022/12/06 03:54:47;;;;;;;13.07;4.63;;;;;;;-10.13;63.93;101124.50;5018251;28;20446;-64
2022/12/06 03:57:13;;;;;;;10.90;3.00;;;;;;;-10.24;63.71;101124.16;5039003;28;20755;-65
2022/12/06 03:59:37;;;;;;;10.60;4.85;;;;;;;-9.94;63.21;101116.59;5017601;28;20045;-64
2022/12/06 04:02:02;;;;;;;5.40;3.35;;;;;;;-9.73;63.03;101116.44;5017388;28;20056;-66
2022/12/06 04:04:27;;;;;;;9.40;4.93;;;;;;;-10.15;63.68;101118.38;5027279;28;20047;-64
2022/12/06 04:06:51;;;;;;;11.10;5.63;;;;;;;-10.29;63.32;101128.28;5038362;28;20044;-65
2022/12/06 04:11:59;;;;;;;6.18;3.28;;;;;;;-10.30;64.02;101122.25;5034728;28;20615;-64
2022/12/06 04:14:31;;;;;;;9.05;3.88;;;;;;;-10.12;62.83;101121.97;5037227;28;20478;-66
2022/12/06 04:19:38;;;;;;;5.28;3.25;;;;;;;-10.13;63.63;101107.31;5038215;28;20045;-64
2022/12/06 04:24:46;;;;;;;5.45;3.13;;;;;;;-10.34;63.94;101112.63;5037885;28;20059;-65
2022/12/06 04:40:47;;;;;;;12.38;5.05;;;;;;;-10.72;64.15;101100.91;5039575;28;20048;-71
2022/12/06 04:45:55;;;;;;;13.43;4.47;;;;;;;-10.65;65.21;101084.88;5039054;28;20079;-69
2022/12/06 04:48:20;;;;;;;10.75;4.90;;;;;;;-10.43;64.33;101088.22;5038702;28;20486;-70
2022/12/06 04:50:50;;;;;;;10.27;4.90;;;;;;;-10.38;64.22;101084.97;5039971;28;20749;-68
2022/12/06 04:53:16;;;;;;;11.45;3.85;;;;;;;-10.57;63.96;101094.59;5020740;28;20463;-68
2022/12/06 04:55:45;;;;;;;7.40;4.55;;;;;;;-10.74;63.96;101094.88;5017608;28;20086;-68
2022/12/06 04:58:09;;;;;;;9.98;4.93;;;;;;;-10.76;64.89;101106.81;5017365;28;20062;-70
2022/12/06 05:00:34;;;;;;;8.48;4.43;;;;;;;-10.74;65.34;101100.03;5038366;28;20040;-69
2022/12/06 05:02:59;;;;;;;10.80;5.57;;;;;;;-10.76;64.71;101104.22;5037194;28;20815;-70
2022/12/06 05:05:23;;;;;;;7.45;4.50;;;;;;;-10.66;64.68;101103.75;5019886;28;20041;-69
2022/12/06 05:07:48;;;;;;;7.28;3.53;;;;;;;-10.56;64.95;101093.75;5038324;28;20028;-69
2022/12/06 05:10:13;;;;;;;8.05;4.15;;;;;;;-10.59;64.76;101103.94;5037364;28;20047;-63
2022/12/06 05:12:37;;;;;;;5.63;3.75;;;;;;;-10.47;64.38;101099.25;5036339;28;20510;-65
2022/12/06 05:15:02;;;;;;;11.55;6.00;;;;;;;-10.56;64.71;101098.91;5037361;28;20062;-65
2022/12/06 05:17:28;;;;;;;9.50;4.03;;;;;;;-10.44;65.41;101105.41;5019325;28;20048;-64
2022/12/06 05:19:53;;;;;;;8.18;4.68;;;;;;;-10.31;64.09;101105.03;5019427;28;20044;-64
2022/12/06 05:22:17;;;;;;;12.30;4.70;;;;;;;-10.32;65.00;101098.09;5019199;28;20043;-68
2022/12/06 05:24:42;;;;;;;6.40;3.92;;;;;;;-10.10;63.68;101089.38;5019481;28;20033;-66
2022/12/06 05:27:06;;;;;;;10.75;5.85;;;;;;;-10.29;63.49;101097.34;5019074;28;20048;-66
2022/12/06 05:29:31;;;;;;;6.32;4.25;;;;;;;-10.19;64.53;101088.22;5035919;28;20070;-66
2022/12/06 05:31:55;;;;;;;12.90;5.30;;;;;;;-10.14;64.02;101090.09;5037296;28;20045;-65
2022/12/06 05:34:20;;;;;;;10.82;5.22;;;;;;;-10.23;63.33;101078.63;5037384;28;20040;-66
2022/12/06 05:36:45;;;;;;;8.02;3.95;;;;;;;-10.04;63.63;101091.28;5037507;28;20419;-65
2022/12/06 05:39:09;;;;;;;14.05;7.30;;;;;;;-10.29;64.03;101079.28;5036610;28;20101;-67
2022/12/06 05:41:34;;;;;;;6.18;3.45;;;;;;;-10.16;63.76;101080.56;5018443;28;20114;-67
2022/12/06 05:43:59;;;;;;;13.15;7.10;;;;;;;-10.16;63.46;101071.13;5018481;28;20048;-65
2022/12/06 05:46:23;;;;;;;6.38;4.03;;;;;;;-10.04;63.41;101084.41;5001737;28;20097;-65
2022/12/06 05:48:48;;;;;;;12.70;5.93;;;;;;;-10.23;64.05;101079.50;5001586;28;20028;-65
2022/12/06 05:51:12;;;;;;;8.25;4.85;;;;;;;-9.98;63.61;101078.59;5036359;28;20056;-64
2022/12/06 05:53:38;;;;;;;9.52;5.47;;;;;;;-10.03;63.48;101095.59;5036229;28;20037;-65
2022/12/06 05:56:10;;;;;;;15.25;7.18;;;;;;;-10.15;63.14;101088.31;5036971;28;20495;-64
2022/12/06 05:58:36;;;;;;;13.25;7.45;;;;;;;-10.17;63.04;101082.28;5036125;28;20074;-65
2022/12/06 06:01:00;;;;;;;13.25;6.70;;;;;;;-10.09;63.78;101079.94;5034960;28;20053;-64
2022/12/06 06:03:25;;;;;;;16.92;9.00;;;;;;;-10.02;63.51;101080.19;5036270;28;20062;-64
2022/12/06 06:05:55;;;;;;;12.40;7.20;;;;;;;-10.20;63.50;101068.41;5035871;28;20044;-65
2022/12/06 06:08:19;;;;;;;10.52;6.18;;;;;;;-9.97;63.89;101062.31;5004167;28;20052;-65
2022/12/06 06:10:44;;;;;;;11.50;6.22;;;;;;;-9.96;62.60;101064.06;4987509;28;20044;-64
2022/12/06 06:13:09;;;;;;;3.92;2.20;;;;;;;-9.77;62.54;101065.53;4989161;28;20037;-65
2022/12/06 06:15:34;;;;;;;8.57;4.22;;;;;;;-9.74;62.13;101063.94;5011823;28;20037;-67
2022/12/06 06:17:59;;;;;;;11.30;6.05;;;;;;;-10.04;62.83;101061.19;5025532;28;20045;-67
2022/12/06 06:20:23;;;;;;;10.95;4.80;;;;;;;-10.02;63.13;101064.72;5019628;28;20048;-68
2022/12/06 06:22:48;;;;;;;4.97;2.88;;;;;;;-9.94;63.59;101052.97;5036549;28;20033;-67
2022/12/06 06:25:12;;;;;;;10.48;6.30;;;;;;;-9.79;63.00;101057.75;5001216;28;20040;-68
2022/12/06 06:27:37;;;;;;;11.15;5.63;;;;;;;-9.55;61.89;101061.13;5034629;28;20032;-67
2022/12/06 06:30:07;;;;;;;12.20;6.28;;;;;;;-9.79;62.23;101060.31;5036461;28;20051;-73
2022/12/06 06:32:32;;;;;;;5.80;4.25;;;;;;;-9.76;61.80;101063.00;5036702;28;20529;-72
2022/12/06 06:34:56;;;;;;;11.23;7.05;;;;;;;-10.03;62.68;101067.25;5001353;28;20487;-71
2022/12/06 06:37:21;;;;;;;4.70;2.40;;;;;;;-9.90;62.99;101065.13;5007205;28;20044;-71
2022/12/06 06:39:45;;;;;;;10.25;4.90;;;;;;;-9.83;61.92;101066.22;5009940;28;20190;-72
2022/12/06 06:42:10;;;;;;;7.13;3.30;;;;;;;-9.50;61.57;101066.44;5043288;28;20066;-73
2022/12/06 06:44:35;;;;;;;6.78;4.28;;;;;;;-9.48;60.57;101067.38;5038566;28;20531;-71
2022/12/06 06:46:59;;;;;;;6.03;4.38;;;;;;;-9.48;60.50;101067.38;5040369;28;20109;-69
2022/12/06 06:49:24;;;;;;;3.22;2.15;;;;;;;-9.54;61.55;101080.06;5019761;28;20040;-71
2022/12/06 06:51:50;;;;;;;13.23;6.03;;;;;;;-9.65;61.27;101068.50;5036465;28;20742;-71
2022/12/06 06:54:14;;;;;;;12.57;5.78;;;;;;;-9.80;62.30;101071.47;5036191;28;20044;-71
2022/12/06 06:56:39;;;;;;;9.73;5.05;;;;;;;-9.74;61.84;101071.69;5018388;28;20044;-71
2022/12/06 06:59:03;;;;;;;12.90;6.35;;;;;;;-9.77;61.40;101075.84;5036526;28;20143;-71
2022/12/06 07:01:28;;;;;;;14.38;5.68;;;;;;;-9.66;62.52;101083.13;5035877;28;20411;-71
2022/12/06 07:03:53;;;;;;;15.40;7.13;;;;;;;-9.76;62.74;101073.34;5036958;28;20127;-71
2022/12/06 07:06:18;;;;;;;12.60;5.55;;;;;;;-9.55;62.40;101074.03;5037353;28;20047;-71
2022/12/06 07:08:43;;;;;;;14.68;7.95;;;;;;;-9.29;61.54;101067.09;5037847;28;20044;-70
2022/12/06 07:11:09;;;;;;;12.15;7.85;;;;;;;-9.23;61.10;101069.84;5031966;28;20166;-73
2022/12/06 07:13:36;;;;;;;16.75;7.55;;;;;;;-9.26;61.05;101064.63;5021318;28;20036;-71
2022/12/06 07:16:05;;;;;;;16.98;5.97;;;;;;;-9.14;60.85;101073.56;5035221;28;20426;-67
2022/12/06 07:18:30;;;;;;;15.95;7.10;;;;;;;-9.08;60.67;101056.53;5034974;28;20063;-67
2022/12/06 07:21:04;;;;;;;13.50;6.32;;;;;;;-9.01;60.83;101061.03;5035022;28;20048;-67
2022/12/06 07:23:32;;;;;;;9.95;5.25;;;;;;;-8.96;60.70;101067.25;5035220;28;20158;-67
2022/12/06 07:26:00;;;;;;;6.57;3.63;;;;;;;-8.62;60.23;101071.69;5012758;28;20496;-66
2022/12/06 07:28:25;;;;;;;8.52;5.32;;;;;;;-8.52;59.39;101058.16;5000797;28;20167;-67
2022/12/06 07:30:50;;;;;;;14.02;5.20;;;;;;;-8.54;59.90;101059.81;5034544;28;20162;-66
2022/12/06 07:33:15;;;;;;;11.82;5.53;;;;;;;-8.71;59.43;101061.06;5031387;28;20494;-66
2022/12/06 07:35:39;;;;;;;8.48;5.10;;;;;;;-8.56;60.23;101058.91;5017927;28;20176;-64
2022/12/06 07:38:04;;;;;;;4.97;3.28;;;;;;;-8.49;59.60;101066.03;5034880;28;20051;-65
2022/12/06 07:40:29;;;;;;;7.45;3.92;;;;;;;-8.33;58.81;101056.94;5035114;28;20051;-66
2022/12/06 07:45:36;;;;;;;15.85;5.20;;;;;;;-8.19;58.72;101065.06;5035931;28;20175;-64
2022/12/06 07:48:01;;;;;;;9.90;6.07;;;;;;;-8.12;58.26;101061.78;5040473;28;20070;-65
2022/12/06 07:50:26;;;;;;;15.45;6.28;;;;;;;-7.49;57.06;101051.28;5026972;28;20036;-65
2022/12/06 07:52:50;;;;;;;12.40;5.78;;;;;;;-6.51;56.49;101044.78;5050150;28;20044;-65
2022/12/06 07:55:16;;;;;;;5.35;3.63;;;;;;;-5.24;55.38;101045.22;5028348;28;20037;-68
2022/12/06 07:57:42;;;;;;;6.00;3.65;;;;;;;-4.18;53.20;101046.56;5016517;28;20045;-67
2022/12/06 08:00:09;;;;;;;7.57;4.30;;;;;;;-3.36;50.40;101035.97;5043896;28;20044;-65
2022/12/06 08:02:39;;;;;;;6.25;3.38;;;;;;;-2.63;48.23;101024.22;5048401;28;20108;-69
2022/12/06 08:05:04;;;;;;;12.30;5.60;;;;;;;-1.58;45.32;101021.78;5044942;28;20133;-66
2022/12/06 08:07:30;;;;;;;11.48;5.93;;;;;;;-0.95;43.52;101019.97;5044372;28;20131;-67
2022/12/06 08:09:55;;;;;;;11.02;6.28;;;;;;;-0.43;40.73;101019.75;5023414;28;20045;-64
2022/12/06 08:12:20;;;;;;;8.43;4.57;;;;;;;-0.19;42.43;101021.38;5037219;28;20497;-66
2022/12/06 08:14:45;;;;;;;4.97;3.10;;;;;;;-0.72;41.95;101019.91;5042192;28;20090;-66
2022/12/06 08:17:09;;;;;;;4.65;2.17;;;;;;;-1.04;41.26;101037.44;5034294;28;20052;-66
2022/12/06 08:19:34;;;;;;;5.20;3.90;;;;;;;-1.48;41.96;101014.84;5035143;28;20032;-67
2022/12/06 08:21:59;;;;;;;8.13;4.35;;;;;;;-1.67;41.98;101024.41;5014772;28;20048;-67
2022/12/06 08:24:23;;;;;;;14.52;7.00;;;;;;;-2.36;42.17;101023.44;5034902;28;20041;-69
2022/12/06 08:26:51;;;;;;;13.32;8.05;;;;;;;-2.65;41.43;101005.06;5016277;28;20040;-68
2022/12/06 08:29:15;;;;;;;11.98;6.57;;;;;;;-1.92;41.91;101000.00;5034137;28;20033;-66
2022/12/06 08:31:40;;;;;;;11.02;5.90;;;;;;;-1.37;41.01;101000.00;5025197;28;20044;-66
2022/12/06 08:34:05;;;;;;;14.20;7.18;;;;;;;-1.37;39.67;100989.56;5025619;28;20455;-66
2022/12/06 08:36:30;;;;;;;7.57;3.55;;;;;;;-1.02;41.96;100989.47;5036003;28;20044;-67
2022/12/06 08:38:55;;;;;;;22.58;6.00;;;;;;;-1.11;41.15;100979.00;5038354;28;20098;-66
2022/12/06 08:44:04;;;;;;;;;;;;;;;-1.35;40.08;100974.69;5038036;28;20036;-66
2022/12/06 08:46:32;;;;;;;10.35;5.82;;;;;;;-1.46;40.41;100973.84;5038459;28;19916;-66
2022/12/06 08:48:57;;;;;;;11.85;6.75;;;;;;;-1.38;40.92;100987.81;5038750;28;20044;-69
2022/12/06 08:51:22;;;;;;;11.13;5.85;;;;;;;-1.67;40.60;100977.34;5038377;28;20060;-68
2022/12/06 08:53:46;;;;;;;11.40;6.35;;;;;;;-1.75;40.71;100973.00;5020016;28;20037;-68
2022/12/06 08:56:11;;;;;;;13.98;6.45;;;;;;;-1.68;40.86;100974.75;5029591;28;20047;-75
2022/12/06 08:58:36;;;;;;;6.75;4.68;;;;;;;-1.66;41.52;100967.78;5037208;28;20123;-72
2022/12/06 09:01:07;;;;;;;10.23;5.22;;;;;;;-2.31;40.65;100979.06;5021391;28;20048;-70
2022/12/06 09:03:32;;;;;;;10.45;6.47;;;;;;;-3.09;41.76;100978.78;5038532;28;20044;-70
2022/12/06 09:06:01;;;;;;;10.68;5.90;;;;;;;-3.01;43.02;100979.69;5020352;28;20044;-72
2022/12/06 09:08:25;;;;;;;8.43;4.68;;;;;;;-2.54;43.23;100979.00;5018255;28;20095;-70
2022/12/06 09:10:50;;;;;;;17.20;7.53;;;;;;;-2.69;41.60;100961.56;5038423;28;20044;-72
2022/12/06 09:13:14;;;;;;;7.55;4.80;;;;;;;-2.30;42.48;100963.41;5003200;28;20043;-70
2022/12/06 09:15:39;;;;;;;11.35;6.63;;;;;;;-2.60;41.10;100968.56;5037705;28;20060;-69
2022/12/06 09:18:04;;;;;;;15.52;6.40;;;;;;;-2.10;41.55;100957.31;5016290;28;20135;-70
2022/12/06 09:20:29;;;;;;;10.65;6.13;;;;;;;-1.41;40.70;100947.69;5014621;28;20451;-70
2022/12/06 09:22:53;;;;;;;7.35;3.95;;;;;;;-0.74;40.43;100951.81;5037630;28;20119;-69
2022/12/06 09:25:18;;;;;;;10.40;6.43;;;;;;;-0.49;38.29;100943.84;5036322;28;20044;-70
2022/12/06 09:27:43;;;;;;;8.38;4.97;;;;;;;-0.32;37.79;100939.34;5037123;28;20039;-70
2022/12/06 09:30:08;;;;;;;8.50;5.22;;;;;;;-0.38;37.86;100937.66;5037306;28;20048;-70
2022/12/06 09:32:33;;;;;;;10.32;5.15;;;;;;;-0.88;38.06;100947.53;5037431;28;20044;-70
2022/12/06 09:34:57;;;;;;;13.40;6.13;;;;;;;-1.36;38.93;100945.97;5019706;28;20043;-70
2022/12/06 09:37:22;;;;;;;7.10;3.88;;;;;;;-1.46;40.00;100942.47;5037206;28;20032;-73
2022/12/06 09:39:56;;;;;;;7.10;4.30;;;;;;;-1.57;39.89;100955.56;5035697;28;20040;-74
2022/12/06 09:42:52;;;;;;;8.18;4.10;;;;;;;-1.44;39.66;100947.69;5037527;28;20452;-72
2022/12/06 09:45:27;;;;;;;11.05;5.15;;;;;;;-1.50;39.52;100932.91;5037563;28;20044;-72
2022/12/06 09:47:54;;;;;;;7.03;4.80;;;;;;;-1.60;39.82;100931.19;5015831;28;20045;-70
2022/12/06 09:50:46;;;;;;;9.60;5.53;;;;;;;-1.84;39.12;100932.94;5037260;28;20105;-70
2022/12/06 09:53:21;;;;;;;6.57;4.40;;;;;;;-1.53;39.61;100936.38;5036303;28;20048;-65
2022/12/06 09:55:52;;;;;;;10.68;5.50;;;;;;;-1.50;39.37;100943.38;5036635;28;20036;-66
2022/12/06 09:58:54;;;;;;;10.05;6.22;;;;;;;-1.44;38.94;100926.78;5036222;28;20048;-65
2022/12/06 10:01:30;;;;;;;8.05;4.47;;;;;;;-1.61;38.21;100924.22;5038460;28;20047;-66
2022/12/06 10:04:15;;;;;;;8.38;4.95;;;;;;;-1.66;38.78;100915.47;5036575;28;20048;-68
2022/12/06 10:06:55;;;;;;;;;;;;;;;-1.39;39.25;100928.53;5038412;28;20048;-68
2022/12/06 10:09:43;;;;;;;7.38;4.70;;;;;;;-1.64;38.98;100908.50;5036554;28;20491;-66
2022/12/06 10:12:28;;;;;;;9.43;4.60;;;;;;;-2.12;39.62;100910.28;5036924;28;20086;-66
2022/12/06 10:14:56;;;;;;;;;;;;;;;-2.20;39.57;100901.59;5037328;28;20134;-66
2022/12/06 10:17:58;;;;;;;9.80;4.93;;;;;;;-1.95;39.89;100913.78;5036829;28;19931;-66
2022/12/06 10:20:25;;;;;;;20.98;7.03;;;;;;;-2.53;39.73;100896.34;5037880;28;20066;-66
2022/12/06 10:23:08;;;;;;;14.35;6.07;;;;;;;-2.75;40.15;100901.53;5036133;28;20127;-66
2022/12/06 10:25:40;;;;;;;8.82;5.57;;;;;;;-3.16;40.99;100895.31;5035535;28;20083;-66
2022/12/06 10:28:22;;;;;;;15.82;7.22;;;;;;;-3.92;42.25;100903.53;5035381;28;20190;-66
2022/12/06 10:30:54;;;;;;;12.85;5.60;;;;;;;-4.38;43.22;100899.69;5035621;28;20040;-65
2022/12/06 10:33:26;;;;;;;7.75;4.22;;;;;;;-4.20;43.17;100897.28;5021697;28;20052;-66
2022/12/06 10:36:08;;;;;;;14.55;6.53;;;;;;;-4.61;43.78;100888.19;5035420;28;20838;-66
2022/12/06 10:38:44;;;;;;;10.60;5.68;;;;;;;-5.03;44.25;100905.09;5022997;28;20047;-64
2022/12/06 10:41:29;;;;;;;5.93;4.05;;;;;;;-5.07;45.74;100898.13;5038699;28;20075;-66
2022/12/06 10:44:03;;;;;;;10.77;4.20;;;;;;;-5.01;45.38;100887.81;5017186;28;20080;-65
2022/12/06 10:49:33;;;;;;;11.25;5.07;;;;;;;-5.49;45.88;100894.13;5034527;28;20114;-66
2022/12/06 10:52:23;;;;;;;6.97;2.95;;;;;;;-5.30;46.24;100873.56;5014673;28;20044;-66
2022/12/06 10:55:13;;;;;;;11.82;4.90;;;;;;;-5.43;46.11;100880.38;5016818;28;20135;-68
2022/12/06 10:58:08;;;;;;;10.23;4.60;;;;;;;-5.59;46.55;100883.59;5033442;28;20044;-67
2022/12/06 11:00:40;;;;;;;12.13;5.60;;;;;;;-5.35;45.87;100864.88;5033215;28;20032;-66
2022/12/06 11:03:13;;;;;;;14.85;6.80;;;;;;;-5.49;46.58;100873.34;5031720;28;20044;-66
2022/12/06 11:05:47;;;;;;;5.47;3.60;;;;;;;-5.31;45.52;100867.53;5034521;28;20049;-71
2022/12/06 11:08:20;;;;;;;6.15;3.33;;;;;;;-5.42;46.54;100878.66;5030481;28;20043;-70
2022/12/06 11:10:45;;;;;;;6.10;3.60;;;;;;;-5.56;46.19;100866.34;5046795;28;20445;-70
2022/12/06 11:13:40;;;;;;;9.77;5.28;;;;;;;-5.51;46.60;100879.38;5016619;28;20074;-70
2022/12/06 11:16:10;;;;;;;8.00;3.85;;;;;;;-5.33;45.78;100858.84;5034012;28;20620;-69
2022/12/06 11:18:35;;;;;;;6.32;3.50;;;;;;;-5.39;45.25;100858.75;5037544;28;20047;-69
2022/12/06 11:21:37;;;;;;;7.32;3.88;;;;;;;-5.23;45.68;100865.88;5051819;28;20040;-69
2022/12/06 11:24:14;;;;;;;1.38;1.08;;;;;;;-5.31;46.05;100862.34;5050602;28;20078;-67
2022/12/06 11:26:57;;;;;;;4.97;3.53;;;;;;;-5.24;45.34;100861.53;5053993;28;20127;-66
2022/12/06 11:29:22;;;;;;;11.82;4.05;;;;;;;-5.39;44.51;100874.34;5054160;28;20047;-66
2022/12/06 11:31:51;;;;;;;7.95;4.38;;;;;;;-5.41;44.75;100864.78;5050982;28;20032;-68
2022/12/06 11:34:47;;;;;;;7.00;4.10;;;;;;;-5.23;44.74;100854.63;5053107;28;20114;-65
2022/12/06 11:37:17;;;;;;;6.68;3.90;;;;;;;-5.14;44.24;100849.50;5013094;28;20045;-65
2022/12/06 11:39:43;;;;;;;6.70;3.80;;;;;;;-5.18;44.46;100856.41;5033482;28;20047;-65
2022/12/06 11:42:12;;;;;;;4.18;2.67;;;;;;;-5.10;44.34;100837.44;5013420;28;20499;-67
2022/12/06 11:44:44;;;;;;;6.07;3.42;;;;;;;-5.01;44.24;100853.13;5003980;28;20128;-65
2022/12/06 11:47:15;;;;;;;9.82;5.05;;;;;;;-5.27;44.18;100837.22;5014138;28;20135;-67
2022/12/06 11:49:42;;;;;;;6.93;4.35;;;;;;;-5.28;44.33;100849.34;5027808;28;20115;-74
2022/12/06 11:52:14;;;;;;;5.80;3.08;;;;;;;-5.01;44.18;100833.19;5046655;28;20529;-74
2022/12/06 11:55:12;;;;;;;5.10;3.03;;;;;;;-5.06;43.91;100823.59;5045148;28;20165;-73
2022/12/06 11:57:45;;;;;;;5.00;3.28;;;;;;;-5.05;44.48;100827.94;5033624;28;20040;-72
2022/12/06 12:00:12;;;;;;;6.82;4.47;;;;;;;-5.33;44.39;100822.47;5036592;28;20123;-73
2022/12/06 12:02:38;;;;;;;6.53;2.90;;;;;;;-5.43;45.03;100835.31;5035340;28;20036;-73